• Join FlightAware (Why Join?)
  • Login
  • US Flag 
07:47AM EDT


 

Airport Tracker/Info


-or-


 

Live Flight TrackerFlight Track Log ✈ EJM622 ✈ 08-Jul-2013 ✈ KVNY - KMDW

Flight Track Log - Related Links

Times and Time Zones

All times are in EDT time to prevent confusion due to time zone crossing. See the EJM622 flight status page for this flight to view local times or setup timezone preferences in your user account.

Time Position Orientation Groundspeed Altitude Reporting Facility
EDT Latitude Longitude Course Direction KTS MPH feet Rate Location/Type
02:13PM 34.1500 -118.4667 55° Northeast 243 280 2,900  Level Southern California TRACON
02:15PM 34.2036 -118.3744 55° Northeast 282 325 7,100 2,460 Climbing Los Angeles Center
02:16PM 34.2750 -118.4256 329° Northwest 297 342 9,300 2,220 Climbing Los Angeles Center
02:17PM 34.3583 -118.4408 351° North 328 377 11,700 2,220 Climbing Los Angeles Center
02:18PM 34.4339 -118.3619 41° Northeast 360 414 14,000 2,340 Climbing Los Angeles Center
02:19PM 34.4881 -118.2592 57° Northeast 371 427 16,600 2,580 Climbing Los Angeles Center
02:20PM 34.5242 -118.1272 72° East 375 432 19,300 2,280 Climbing Los Angeles Center
02:21PM 34.5589 -118.0078 71° East 377 434 21,400 1,740 Climbing Los Angeles Center
02:22PM 34.5961 -117.8819 70° East 397 457 22,900 1,440 Climbing Los Angeles Center
02:23PM 34.6331 -117.7486 71° East 416 479 24,400 1,560 Climbing Los Angeles Center
02:24PM 34.6792 -117.5844 71° East 432 497 26,200 1,560 Climbing Los Angeles Center
02:25PM 34.7189 -117.4444 71° East 441 507 27,700 1,440 Climbing Los Angeles Center
02:26PM 34.7597 -117.3017 71° East 453 521 29,200 1,200 Climbing Los Angeles Center
02:27PM 34.8008 -117.1547 71° East 463 533 30,200 960 Climbing Los Angeles Center
02:28PM 34.8850 -116.9942 57° Northeast 478 550 31,300 960 Climbing Los Angeles Center
02:29PM 34.9706 -116.8664 51° Northeast 487 560 32,300 960 Climbing Los Angeles Center
02:30PM 35.0581 -116.7347 51° Northeast 499 574 33,300 960 Climbing Los Angeles Center
02:31PM 35.1433 -116.6053 51° Northeast 497 572 34,300 960 Climbing Los Angeles Center
02:33PM 35.2286 -116.4750 51° Northeast 493 567 35,300 900 Climbing Los Angeles Center
02:34PM 35.3297 -116.3175 52° Northeast 493 567 36,200 780 Climbing Los Angeles Center
02:35PM 35.4161 -116.1889 50° Northeast 492 566 37,000 780 Climbing Los Angeles Center
02:36PM 35.4994 -116.0597 52° Northeast 487 560 37,900 720 Climbing Los Angeles Center
02:37PM 35.5819 -115.9292 52° Northeast 486 559 38,600 600 Climbing Los Angeles Center
02:38PM 35.6711 -115.7922 51° Northeast 479 551 39,200 480 Climbing Los Angeles Center
02:39PM 35.7544 -115.6658 51° Northeast 478 550 39,700 480 Climbing Los Angeles Center
02:40PM 35.8372 -115.5392 51° Northeast 476 548 40,200 420 Climbing Los Angeles Center
02:41PM 35.9169 -115.4119 52° Northeast 474 545 40,600 300 Climbing Los Angeles Center
02:42PM 36.0122 -115.2622 52° Northeast 464 534 40,900 180 Climbing Los Angeles Center
02:43PM 36.0847 -115.1389 54° Northeast 464 534 41,000  Climbing Los Angeles Center
02:44PM 36.1328 -114.9797 69° East 472 543 41,000  Level Los Angeles Center
02:45PM 36.1792 -114.8278 69° East 473 544 41,000  Level Los Angeles Center
02:46PM 36.2347 -114.6433 69° East 477 549 41,000  Level Los Angeles Center
02:47PM 36.2814 -114.4914 69° East 474 545 41,000  Level Los Angeles Center
02:48PM 36.3275 -114.3397 69° East 472 543 41,000  Level Los Angeles Center
02:49PM 36.3731 -114.1883 69° East 470 541 41,000  Level Los Angeles Center
02:50PM 36.4175 -114.0361 70° East 469 540 41,000  Level Los Angeles Center
02:51PM 36.4622 -113.8850 70° East 467 537 41,000  Level Los Angeles Center
02:52PM 36.5147 -113.7111 69° East 465 535 41,000  Level Los Angeles Center
02:53PM 36.5586 -113.5600 70° East 465 535 41,000  Level Los Angeles Center
02:54PM 36.6033 -113.4111 69° East 463 533 41,000  Level Los Angeles Center
02:55PM 36.6467 -113.2606 70° East 464 534 41,000  Level Los Angeles Center
02:56PM 36.6994 -113.0803 70° East 464 534 41,000  Level Los Angeles Center
02:57PM 36.7431 -112.9303 70° East 463 533 41,000  Level Los Angeles Center
02:58PM 36.7858 -112.7817 70° East 460 529 41,000  Level Los Angeles Center
02:59PM 36.8294 -112.6328 70° East 460 529 41,000  Level Los Angeles Center
03:00PM 36.8722 -112.4831 70° East 460 529 41,000  Level Los Angeles Center
03:02PM 36.9222 -112.3042 71° East 459 528 41,000  Level Los Angeles Center
03:03PM 36.9650 -112.1556 70° East 458 527 41,000  Level Los Angeles Center
03:04PM 37.0083 -112.0067 70° East 458 527 41,000 -300 Level Los Angeles Center
03:05PM 37.0497 -111.8550 71° East 461 531 40,500 -660 Descending Los Angeles Center
03:06PM 37.0844 -111.7292 71° East 470 541 39,700 -1,020 Descending Los Angeles Center
03:06PM 37.1183 -111.5992 72° East 489 563 39,000 -480 Descending Denver Center
03:07PM 37.1522 -111.4689 72° East 495 570 39,000  Level Denver Center
03:08PM 37.2056 -111.2711 71° East 498 573 39,000  Level Denver Center
03:09PM 37.2581 -111.0781 71° East 489 563 39,000  Level Denver Center
03:10PM 37.3019 -110.9147 71° East 493 567 39,000  Level Denver Center
03:11PM 37.3447 -110.7531 72° East 491 565 39,000  Level Denver Center
03:12PM 37.3886 -110.5886 71° East 498 573 39,000  Level Denver Center
03:13PM 37.4317 -110.4258 72° East 493 567 39,000  Level Denver Center
03:14PM 37.4650 -110.2933 72° East 497 572 39,000  Level Denver Center
03:15PM 37.5228 -110.0728 72° East 491 565 39,000  Level Denver Center
03:17PM 37.5622 -109.9139 73° East 494 568 39,000  Level Denver Center
03:18PM 37.6100 -109.7297 72° East 494 568 39,000  Level Denver Center
03:19PM 37.6497 -109.5700 73° East 497 572 39,000  Level Denver Center
03:20PM 37.6969 -109.3867 72° East 492 566 39,000  Level Denver Center
03:21PM 37.7361 -109.2261 73° East 497 572 39,000  Level Denver Center
03:22PM 37.7747 -109.0681 73° East 493 567 39,000  Level Denver Center
03:23PM 37.8319 -108.8581 71° East 494 568 39,000  Level Denver Center
03:24PM 37.8961 -108.6819 65° Northeast 492 566 39,000  Level Denver Center
03:25PM 37.9400 -108.5564 66° East 490 564 39,000  Level Denver Center
03:26PM 38.0097 -108.3536 66° East 492 566 39,000  Level Denver Center
03:27PM 38.0619 -108.2014 66° East 492 566 39,000  Level Denver Center
03:28PM 38.1172 -108.0381 67° East 491 565 39,000  Level Denver Center
03:29PM 38.1694 -107.8867 66° East 489 563 39,000  Level Denver Center
03:30PM 38.2283 -107.7100 67° East 487 560 39,000  Level Denver Center
03:31PM 38.2800 -107.5592 66° East 487 560 39,000  Level Denver Center
03:32PM 38.3383 -107.3808 67° East 489 563 39,000  Level Denver Center
03:33PM 38.3889 -107.2314 67° East 482 555 39,000  Level Denver Center
03:34PM 38.4472 -107.0539 67° East 487 560 39,000  Level Denver Center
03:36PM 38.4817 -106.8925 75° East 488 562 39,000  Level Denver Center
03:37PM 38.5206 -106.6931 76° East 486 559 39,000  Level Denver Center
03:38PM 38.5533 -106.5261 76° East 486 559 39,000  Level Denver Center
03:39PM 38.5847 -106.3603 76° East 483 556 39,000  Level Denver Center
03:40PM 38.6333 -106.1147 76° East 490 564 39,000  Level Denver Center
03:41PM 38.6581 -105.9800 77° East 489 563 39,000  Level Denver Center
03:42PM 38.6969 -105.7775 76° East 489 563 39,000  Level Denver Center
03:43PM 38.7289 -105.6100 76° East 486 559 39,000  Level Denver Center
03:44PM 38.7586 -105.4408 77° East 490 564 39,100 360 Climbing Denver Center
03:45PM 38.7903 -105.2739 76° East 486 559 39,800 660 Climbing Denver Center
03:46PM 38.8272 -105.0772 76° East 478 550 40,500 480 Climbing Denver Center
03:47PM 38.8561 -104.9125 77° East 477 549 40,800 240 Climbing Denver Center
03:48PM 38.8861 -104.7500 77° East 472 543 41,000 60 Climbing Denver Center
03:49PM 38.9144 -104.5881 77° East 469 540 41,000  Level Denver Center
03:50PM 38.9425 -104.4297 77° East 462 532 41,000  Level Denver Center
03:51PM 38.9756 -104.2394 77° East 458 527 41,000  Level Denver Center
03:52PM 39.0083 -104.0506 77° East 455 524 41,000  Level Denver Center
03:53PM 39.0356 -103.8933 77° East 454 522 41,000  Level Denver Center
03:55PM 39.0622 -103.7356 78° East 456 525 41,000  Level Denver Center
03:56PM 39.0886 -103.5772 78° East 455 524 41,000  Level Denver Center
03:57PM 39.1203 -103.3853 78° East 458 527 41,000  Level Denver Center
03:58PM 39.1469 -103.2247 78° East 461 531 41,000  Level Denver Center
03:59PM 39.1792 -103.0317 78° East 462 532 41,000  Level Denver Center
04:00PM 39.2056 -102.8694 78° East 464 534 41,000  Level Denver Center
04:01PM 39.2325 -102.6953 79° East 467 537 41,000  Level Denver Center
04:02PM 39.2622 -102.5117 78° East 468 539 41,000  Level Denver Center
04:03PM 39.2864 -102.3528 79° East 471 542 41,000  Level Denver Center
04:04PM 39.3114 -102.1942 78° East 471 542 41,000  Level Denver Center
04:05PM 39.3331 -102.0503 79° East 470 541 41,000  Level Denver Center
04:06PM 39.3617 -101.8683 78° East 465 535 41,000  Level Denver Center
04:07PM 39.3906 -101.6850 78° East 466 536 41,000  Level Denver Center
04:08PM 39.4483 -101.5136 66° East 468 539 41,000  Level Denver Center
04:09PM 39.4975 -101.3675 66° East 466 536 41,000  Level Denver Center
04:10PM 39.5550 -101.1953 67° East 468 539 41,000  Level Denver Center
04:11PM 39.6208 -100.9986 66° East 466 536 41,000  Level Denver Center
04:12PM 39.6697 -100.8461 67° East 477 549 41,000  Level Denver Center
04:14PM 39.7197 -100.6967 66° East 476 548 41,000  Level Denver Center
04:15PM 39.7769 -100.5225 67° East 473 544 41,000  Level Denver Center
04:16PM 39.8256 -100.3697 67° East 476 548 41,000  Level Denver Center
04:17PM 39.8783 -100.2069 67° East 475 547 41,000  Level Denver Center
04:18PM 39.9286 -100.0478 68° East 476 548 41,000  Level Denver Center
04:19PM 39.9897 -99.8572 67° East 477 549 41,000  Level Denver Center
04:20PM 40.0406 -99.6986 67° East 476 548 41,000  Level Denver Center
04:21PM 40.0897 -99.5397 68° East 474 545 41,000  Level Denver Center
04:22PM 40.1389 -99.3817 68° East 470 541 41,000  Level Denver Center
04:23PM 40.1786 -99.2550 68° East 471 542 41,000  Level Denver Center
04:24PM 40.2375 -99.0650 68° East 471 542 41,000  Level Denver Center
04:24PM 40.2522 -98.9669 79° East 469 540 41,000  Level Minneapolis Center
04:25PM 40.2792 -98.7647 80° East 471 542 41,000  Level Minneapolis Center
04:27PM 40.3025 -98.5953 80° East 474 545 41,000  Level Minneapolis Center
04:28PM 40.3253 -98.4267 80° East 475 547 41,000  Level Minneapolis Center
04:29PM 40.3481 -98.2581 80° East 473 544 41,000  Level Minneapolis Center
04:30PM 40.3700 -98.0886 80° East 473 544 41,000  Level Minneapolis Center
04:31PM 40.3917 -97.9200 80° East 472 543 41,000  Level Minneapolis Center
04:32PM 40.4172 -97.7181 80° East 470 541 41,000  Level Minneapolis Center
04:33PM 40.4394 -97.5494 80° East 470 541 41,000  Level Minneapolis Center
04:34PM 40.4600 -97.3806 81° East 470 541 41,000  Level Minneapolis Center
04:35PM 40.4831 -97.1967 81° East 471 542 41,000  Level Minneapolis Center
04:36PM 40.5044 -97.0278 80° East 471 542 41,000  Level Minneapolis Center
04:37PM 40.5233 -96.8569 82° East 473 544 41,000  Level Minneapolis Center
04:38PM 40.5439 -96.6867 81° East 473 544 41,000  Level Minneapolis Center
04:39PM 40.5644 -96.5158 81° East 475 547 41,000  Level Minneapolis Center
04:40PM 40.5875 -96.3108 82° East 475 547 41,000  Level Minneapolis Center
04:41PM 40.6072 -96.1392 81° East 477 549 41,000  Level Minneapolis Center
04:42PM 40.6264 -95.9686 82° East 476 548 41,000  Level Minneapolis Center
04:43PM 40.6453 -95.8000 82° East 472 543 41,000  Level Minneapolis Center
04:44PM 40.6644 -95.6328 81° East 466 536 41,000  Level Minneapolis Center
04:45PM 40.6889 -95.3992 82° East 464 534 41,000  Level Minneapolis Center
04:46PM 40.7075 -95.2319 82° East 463 533 41,000  Level Minneapolis Center
04:47PM 40.7256 -95.0625 82° East 467 537 41,000  Level Minneapolis Center
04:48PM 40.7428 -94.8919 82° East 471 542 41,000  Level Minneapolis Center
04:49PM 40.7600 -94.7197 82° East 474 545 41,000  Level Minneapolis Center
04:51PM 40.7803 -94.5203 82° East 476 548 41,000  Level Minneapolis Center
04:52PM 40.7961 -94.3503 83° East 474 545 41,000  Level Minneapolis Center
04:53PM 40.8128 -94.1783 83° East 473 544 41,000  Level Minneapolis Center
04:54PM 40.8311 -94.0047 82° East 479 551 41,000  Level Minneapolis Center
04:55PM 40.8456 -93.8333 84° East 476 548 41,000  Level Minneapolis Center
04:56PM 40.8631 -93.6261 84° East 477 549 41,000  Level Minneapolis Center
04:57PM 40.8822 -93.4506 82° East 480 552 41,000  Level Minneapolis Center
04:58PM 40.9150 -93.2453 78° East 478 550 41,000  Level Minneapolis Center
04:59PM 40.9414 -93.0736 78° East 479 551 41,000  Level Minneapolis Center
05:00PM 40.9669 -92.9003 79° East 479 551 41,000  Level Minneapolis Center
05:01PM 40.9961 -92.6947 79° East 478 550 41,000  Level Minneapolis Center
05:02PM 41.0111 -92.5217 83° East 475 547 41,000 -300 Level Minneapolis Center
05:03PM 41.0203 -92.3469 86° East 478 550 40,500 -1,380 Descending Minneapolis Center
05:04PM 41.0319 -92.1694 85° East 482 555 38,200 -2,400 Descending Minneapolis Center
05:05PM 41.0422 -91.9881 86° East 490 564 35,600 -2,460 Descending Minneapolis Center
05:06PM 41.0522 -91.8081 86° East 494 568 33,200 -1,980 Descending Minneapolis Center
05:08PM 41.0669 -91.5619 85° East 485 558 31,100 -960 Descending Chicago Center
05:09PM 41.0778 -91.3825 85° East 486 559 31,000 -60 Descending Chicago Center
05:10PM 41.0861 -91.2014 86° East 490 564 31,000 -1,020 Level Chicago Center
05:11PM 41.0961 -91.0156 86° East 503 579 28,900 -2,520 Descending Chicago Center
05:12PM 41.1050 -90.8325 86° East 498 573 25,900 -2,400 Descending Chicago Center
05:13PM 41.1156 -90.6197 86° East 483 556 24,000 -1,380 Descending Chicago Center
05:14PM 41.1253 -90.4481 86° East 470 541 23,100 -1,260 Descending Chicago Center
05:15PM 41.1322 -90.2750 87° East 468 539 21,400 -1,680 Descending Chicago Center
05:16PM 41.1400 -90.1053 86° East 462 532 19,700 -1,620 Descending Chicago Center
05:17PM 41.1472 -89.9356 87° East 459 528 18,100 -1,500 Descending Chicago Center
05:18PM 41.1536 -89.7703 87° East 449 517 16,600 -1,440 Descending Chicago Center
05:19PM 41.1608 -89.6114 86° East 434 499 15,200 -780 Descending Chicago Center
05:20PM 41.1728 -89.4283 85° East 417 480 15,000 -660 Descending Chicago Center
05:21PM 41.1956 -89.2819 78° East 417 480 13,900 -1,020 Descending Chicago Center
05:22PM 41.2461 -89.1506 63° Northeast 396 456 12,900 -1,200 Descending Chicago Center
05:23PM 41.2931 -89.0206 64° Northeast 392 451 11,400 -1,380 Descending Chicago Center
05:24PM 41.3378 -88.8972 64° Northeast 378 435 10,100 -1,020 Descending Chicago Center
05:25PM 41.3814 -88.7744 65° Northeast 371 427 9,300 -1,260 Descending Chicago Center
05:26PM 41.4250 -88.6447 66° East 328 377 7,600 -1,500 Descending Chicago Center
05:27PM 41.4494 -88.5344 73° East 315 362 6,200 -780 Descending Chicago Center
05:28PM 41.4736 -88.4261 73° East 311 358 6,000 -120 Descending Chicago Center
05:29PM 41.4978 -88.3189 73° East 306 352 6,000  Level Chicago Center
05:30PM 41.5219 -88.2108 73° East 304 350 6,000  Level Chicago Center
05:31PM 41.5467 -88.1003 73° East 305 351 6,000 -480 Level Chicago Center
05:32PM 41.5689 -87.9867 75° East 313 360 5,100 -480 Descending Chicago Center
05:33PM 41.5750 -87.8517 86° East 306 352 5,000 -60 Descending Chicago Center
05:34PM 41.5811 -87.7439 86° East 298 343 5,000 -540 Level Chicago Center
05:35PM 41.6236 -87.6669 54° Northeast 279 321 4,000 -1,020 Descending Chicago Center
05:36PM 41.6772 -87.6078 39° Northeast 268 308 3,000 -840 Descending Chicago Center
05:38PM 41.7186 -87.6564 319° Northwest 227 261 2,300 -720 Descending Chicago Center
05:39PM 41.7675 -87.6947 330° Northwest 207 238 1,600 -540 Descending Chicago Center
05:40PM 41.8100 -87.7056 349° North 194 223 1,300 -300 Descending Chicago Center
05:41PM 41.7867 -87.7514 236° Southwest 185 213 1,000 -300 Descending Chicago Center